Time;durP1;ratioP1;P1;durP2;ratioP2;P2;SDS_P1;SDS_P2;PMS_P1;PMS_P2;Temp;Humidity;BMP_temperature;BMP_pressure;BME280_temperature;BME280_humidity;BME280_pressure;Samples;Min_cycle;Max_cycle;Signal;HPM_P1;HPM_P2
2024/04/05 00:00:45;;;;;;;28.90;5.60;;;11.40;99.90;;;;;;5003014;28;20232;-63
2024/04/05 00:03:12;;;;;;;20.37;5.43;;;11.40;99.90;;;;;;5020809;28;20213;-63
2024/04/05 00:05:39;;;;;;;30.30;6.03;;;11.40;99.90;;;;;;5016294;28;20224;-63
2024/04/05 00:08:07;;;;;;;33.93;6.50;;;11.50;99.90;;;;;;5001664;28;20280;-63
2024/04/05 00:10:36;;;;;;;26.80;5.67;;;11.50;99.90;;;;;;5022794;28;20253;-63
2024/04/05 00:13:02;;;;;;;19.47;4.90;;;11.50;99.90;;;;;;5017789;28;20221;-63
2024/04/05 00:15:30;;;;;;;23.83;5.30;;;11.50;99.90;;;;;;5016052;28;20313;-63
2024/04/05 00:17:56;;;;;;;21.30;4.97;;;11.50;99.90;;;;;;5025000;28;20231;-63
2024/04/05 00:20:24;;;;;;;26.33;5.27;;;11.50;99.90;;;;;;5017224;28;20289;-63
2024/04/05 00:22:50;;;;;;;27.97;5.40;;;11.60;99.90;;;;;;5022260;28;20256;-63
2024/04/05 00:25:17;;;;;;;24.00;5.30;;;11.70;99.90;;;;;;5024196;28;20684;-63
2024/04/05 00:27:45;;;;;;;25.23;5.10;;;11.80;99.90;;;;;;5018645;28;20229;-63
2024/04/05 00:30:13;;;;;;;24.40;4.67;;;11.80;99.90;;;;;;5020233;28;20261;-62
2024/04/05 00:32:39;;;;;;;19.30;4.60;;;12.00;99.90;;;;;;5018709;28;20345;-63
2024/04/05 00:35:07;;;;;;;20.20;4.40;;;12.00;99.90;;;;;;5024052;28;20717;-63
2024/04/05 00:37:33;;;;;;;22.27;4.67;;;12.10;99.90;;;;;;5023547;28;20228;-63
2024/04/05 00:40:01;;;;;;;21.60;5.00;;;12.20;99.90;;;;;;5027502;28;20282;-62
2024/04/05 00:42:28;;;;;;;20.93;4.60;;;12.20;99.90;;;;;;5022887;28;20797;-63
2024/04/05 00:44:57;;;;;;;19.57;4.20;;;12.30;99.90;;;;;;5021431;28;20582;-62
2024/04/05 00:47:23;;;;;;;20.03;4.20;;;12.30;99.90;;;;;;5031535;28;20193;-63
2024/04/05 00:49:51;;;;;;;25.17;4.17;;;12.40;99.90;;;;;;5023721;28;20236;-63
2024/04/05 00:52:17;;;;;;;22.63;4.77;;;12.50;99.90;;;;;;5024288;28;20687;-63
2024/04/05 00:54:45;;;;;;;22.90;4.30;;;12.50;99.90;;;;;;5025525;28;20849;-63
2024/04/05 00:57:12;;;;;;;17.40;4.50;;;12.50;99.90;;;;;;5023341;28;20221;-63
2024/04/05 00:59:39;;;;;;;22.93;4.33;;;12.60;99.90;;;;;;5020446;28;20553;-62
2024/04/05 01:02:08;;;;;;;19.20;4.33;;;12.60;99.90;;;;;;5026957;28;20194;-63
2024/04/05 01:04:35;;;;;;;15.53;3.87;;;12.70;99.90;;;;;;5023293;28;20229;-63
2024/04/05 01:07:02;;;;;;;24.73;4.40;;;12.70;99.90;;;;;;5020012;28;20210;-63
2024/04/05 01:09:30;;;;;;;14.90;3.97;;;12.70;99.90;;;;;;5023524;28;20225;-62
2024/04/05 01:11:57;;;;;;;16.97;3.73;;;12.70;99.90;;;;;;5017743;28;20308;-62
2024/04/05 01:14:24;;;;;;;18.47;3.90;;;12.70;99.90;;;;;;5020919;28;20643;-63
2024/04/05 01:16:51;;;;;;;16.23;3.77;;;12.80;99.90;;;;;;5022370;28;20218;-63
2024/04/05 01:19:20;;;;;;;18.77;3.30;;;12.80;99.90;;;;;;5023071;28;20221;-63
2024/04/05 01:21:49;;;;;;;18.30;3.60;;;12.80;99.90;;;;;;5028702;28;20690;-62
2024/04/05 01:24:18;;;;;;;16.90;4.10;;;12.80;99.90;;;;;;5024102;28;20308;-62
2024/04/05 01:26:47;;;;;;;14.13;3.63;;;12.80;99.90;;;;;;5021240;28;21003;-62
2024/04/05 01:29:14;;;;;;;14.77;4.13;;;12.90;99.90;;;;;;5023851;28;20281;-63
2024/04/05 01:31:41;;;;;;;13.60;4.23;;;12.90;99.90;;;;;;5025668;28;20221;-63
2024/04/05 01:34:08;;;;;;;13.90;3.80;;;13.00;99.90;;;;;;5040967;28;20232;-63
2024/04/05 01:36:34;;;;;;;15.03;3.97;;;13.00;99.90;;;;;;5033103;28;20240;-63
2024/04/05 01:39:02;;;;;;;16.63;3.17;;;13.00;99.90;;;;;;5026017;28;20599;-63
2024/04/05 01:41:29;;;;;;;10.73;3.63;;;13.10;99.90;;;;;;5027537;28;20205;-63
2024/04/05 01:43:57;;;;;;;24.27;4.20;;;13.10;99.90;;;;;;5022228;28;20213;-62
2024/04/05 01:46:23;;;;;;;13.30;3.70;;;13.20;99.90;;;;;;5022443;28;20233;-62
2024/04/05 01:48:51;;;;;;;11.17;3.30;;;13.20;99.90;;;;;;5023579;28;20210;-62
2024/04/05 01:51:17;;;;;;;17.73;3.67;;;13.20;99.90;;;;;;5025373;28;20603;-62
2024/04/05 01:53:45;;;;;;;16.67;3.63;;;13.30;99.90;;;;;;5024479;28;20304;-62
2024/04/05 01:56:11;;;;;;;20.87;4.20;;;13.20;99.90;;;;;;5021414;28;20276;-63
2024/04/05 01:58:39;;;;;;;12.70;3.63;;;13.20;99.90;;;;;;5025099;28;20222;-62
2024/04/05 02:01:06;;;;;;;11.20;3.30;;;13.10;99.90;;;;;;5022116;28;20233;-63
2024/04/05 02:03:33;;;;;;;18.03;3.93;;;13.10;99.90;;;;;;5022961;28;20218;-63
2024/04/05 02:06:11;;;;;;;16.57;3.80;;;13.10;99.90;;;;;;5024059;28;20296;-63
2024/04/05 02:08:39;;;;;;;17.97;3.43;;;13.00;99.90;;;;;;5023184;28;20216;-63
2024/04/05 02:11:05;;;;;;;23.10;4.17;;;13.00;99.90;;;;;;5020276;28;20316;-63
2024/04/05 02:13:33;;;;;;;16.73;3.40;;;13.00;99.90;;;;;;5020952;28;20222;-62
2024/04/05 02:16:01;;;;;;;19.93;3.77;;;13.00;99.90;;;;;;5021088;28;20253;-63
2024/04/05 02:18:28;;;;;;;13.37;3.63;;;13.00;99.90;;;;;;5022874;28;20256;-62
2024/04/05 02:20:56;;;;;;;11.73;3.33;;;13.00;99.90;;;;;;5021434;28;20204;-62
2024/04/05 02:23:24;;;;;;;21.17;3.80;;;13.00;99.90;;;;;;5021046;28;20197;-62
2024/04/05 02:25:51;;;;;;;13.40;3.60;;;13.10;99.90;;;;;;5022773;28;20274;-62
2024/04/05 02:28:19;;;;;;;13.47;2.90;;;13.10;99.90;;;;;;5026109;28;20275;-63
2024/04/05 02:30:48;;;;;;;14.00;4.20;;;13.20;99.90;;;;;;5035184;28;20220;-62
2024/04/05 02:33:16;;;;;;;17.57;4.03;;;13.20;99.90;;;;;;5033224;28;20221;-62
2024/04/05 02:35:43;;;;;;;9.73;3.83;;;13.10;99.90;;;;;;5022939;28;20243;-62
2024/04/05 02:38:10;;;;;;;16.53;3.33;;;13.10;99.90;;;;;;5023811;28;20189;-63
2024/04/05 02:40:37;;;;;;;18.17;3.63;;;13.10;99.90;;;;;;5021946;28;20236;-62
2024/04/05 02:43:04;;;;;;;20.33;3.93;;;13.20;99.90;;;;;;5007333;28;20299;-62
2024/04/05 02:45:31;;;;;;;14.83;4.07;;;13.10;99.90;;;;;;5020489;28;20346;-63
2024/04/05 02:47:58;;;;;;;17.17;3.73;;;13.10;99.90;;;;;;5024587;28;20217;-63
2024/04/05 02:50:26;;;;;;;16.60;3.70;;;13.10;99.90;;;;;;5020580;28;20197;-63
2024/04/05 02:52:54;;;;;;;10.60;3.50;;;13.10;99.90;;;;;;5040140;28;20230;-62
2024/04/05 02:55:20;;;;;;;11.50;3.40;;;13.20;99.90;;;;;;5023966;28;20224;-62
2024/04/05 02:57:47;;;;;;;15.97;3.27;;;13.10;99.90;;;;;;5029383;28;20212;-63
2024/04/05 03:00:15;;;;;;;11.30;3.77;;;13.10;99.90;;;;;;5036278;28;20350;-62
2024/04/05 03:02:42;;;;;;;10.63;3.40;;;13.10;99.90;;;;;;5019733;28;20205;-62
2024/04/05 03:05:09;;;;;;;17.27;3.80;;;13.00;99.90;;;;;;5006174;28;20304;-63
2024/04/05 03:07:38;;;;;;;15.93;3.57;;;13.00;99.90;;;;;;5022579;28;20221;-62
2024/04/05 03:10:05;;;;;;;14.37;3.73;;;13.00;99.90;;;;;;5019854;28;20218;-63
2024/04/05 03:12:33;;;;;;;13.57;3.97;;;13.00;99.90;;;;;;5018641;28;20314;-62
2024/04/05 03:15:01;;;;;;;20.00;4.43;;;12.90;99.90;;;;;;5021389;28;20228;-62
2024/04/05 03:17:28;;;;;;;15.13;4.13;;;13.00;99.90;;;;;;5009191;28;20194;-62
2024/04/05 03:19:55;;;;;;;13.90;3.60;;;13.00;99.90;;;;;;5019349;28;20214;-62
2024/04/05 03:22:23;;;;;;;17.27;3.53;;;13.00;99.90;;;;;;5023599;28;20231;-63
2024/04/05 03:24:50;;;;;;;17.60;4.20;;;13.00;99.90;;;;;;5018420;28;20226;-63
2024/04/05 03:27:18;;;;;;;13.30;4.37;;;13.00;99.90;;;;;;5020014;28;20572;-62
2024/04/05 03:29:45;;;;;;;18.97;3.67;;;13.00;99.90;;;;;;5022328;28;20200;-63
2024/04/05 03:32:13;;;;;;;13.23;3.53;;;13.00;99.90;;;;;;5022592;28;20186;-62
2024/04/05 03:34:40;;;;;;;11.43;3.67;;;13.00;99.90;;;;;;5024260;28;20735;-62
2024/04/05 03:37:08;;;;;;;15.03;3.77;;;13.00;99.90;;;;;;5023545;28;20566;-63
2024/04/05 03:39:36;;;;;;;13.47;3.90;;;13.00;99.90;;;;;;5021107;28;20299;-62
2024/04/05 03:42:05;;;;;;;19.63;3.97;;;13.00;99.90;;;;;;5021155;28;20217;-63
2024/04/05 03:44:32;;;;;;;12.23;3.33;;;12.90;99.90;;;;;;5018885;28;20205;-63
2024/04/05 03:46:59;;;;;;;15.90;3.60;;;12.90;99.90;;;;;;5018919;28;20284;-63
2024/04/05 03:49:28;;;;;;;12.57;3.70;;;12.80;99.90;;;;;;5019608;28;20291;-62
2024/04/05 03:51:56;;;;;;;17.87;4.27;;;12.80;99.90;;;;;;5022442;28;20217;-63
2024/04/05 03:54:22;;;;;;;20.27;4.10;;;12.80;99.90;;;;;;5020101;28;20296;-62
2024/04/05 03:56:52;;;;;;;21.23;4.33;;;12.70;99.90;;;;;;5021545;28;20193;-63
2024/04/05 03:59:20;;;;;;;15.03;3.80;;;12.70;99.90;;;;;;5022889;28;20205;-62
2024/04/05 04:01:50;;;;;;;17.03;4.23;;;12.70;99.90;;;;;;5023112;28;20691;-62
2024/04/05 04:04:17;;;;;;;15.00;4.50;;;12.80;99.90;;;;;;5023516;28;20565;-62
2024/04/05 04:06:47;;;;;;;14.47;3.70;;;12.80;99.90;;;;;;5021269;28;20228;-63
2024/04/05 04:09:16;;;;;;;12.97;4.00;;;12.80;99.90;;;;;;5020745;28;20260;-63
2024/04/05 04:11:43;;;;;;;13.00;4.00;;;12.80;99.90;;;;;;5022973;28;20242;-63
2024/04/05 04:14:13;;;;;;;18.43;3.70;;;12.80;99.90;;;;;;5023268;28;20217;-62
2024/04/05 04:16:41;;;;;;;17.43;3.77;;;12.80;99.90;;;;;;5022233;28;20218;-62
2024/04/05 04:19:08;;;;;;;12.77;3.97;;;12.80;99.90;;;;;;5022235;28;20223;-62
2024/04/05 04:21:35;;;;;;;11.93;3.70;;;12.80;99.90;;;;;;5020957;28;20308;-63
2024/04/05 04:24:03;;;;;;;10.03;3.43;;;12.80;99.90;;;;;;5017671;28;20358;-63
2024/04/05 04:26:29;;;;;;;13.63;4.23;;;12.80;99.90;;;;;;5020862;28;20204;-62
2024/04/05 04:28:57;;;;;;;15.33;4.03;;;12.80;99.90;;;;;;5023417;28;20253;-63
2024/04/05 04:31:24;;;;;;;23.33;4.27;;;12.80;99.90;;;;;;5018468;28;20221;-62
2024/04/05 04:33:54;;;;;;;16.73;4.57;;;12.70;99.90;;;;;;5024709;28;20328;-63
2024/04/05 04:36:22;;;;;;;9.23;3.40;;;12.70;99.90;;;;;;5022880;28;20221;-63
2024/04/05 04:38:49;;;;;;;11.73;4.27;;;12.70;99.90;;;;;;5022163;28;20314;-63
2024/04/05 04:41:17;;;;;;;17.70;3.70;;;12.70;99.90;;;;;;5022723;28;20192;-63
2024/04/05 04:43:45;;;;;;;17.53;4.13;;;12.70;99.90;;;;;;5022186;28;20255;-63
2024/04/05 04:46:12;;;;;;;12.83;4.43;;;12.70;99.90;;;;;;5015054;28;20225;-62
2024/04/05 04:48:42;;;;;;;13.57;3.50;;;12.70;99.90;;;;;;5015021;28;20274;-63
2024/04/05 04:51:10;;;;;;;10.93;4.07;;;12.60;99.90;;;;;;5016972;28;20232;-63
2024/04/05 04:53:38;;;;;;;14.33;3.43;;;12.60;99.90;;;;;;5020116;28;20215;-61
2024/04/05 04:56:05;;;;;;;8.00;3.60;;;12.60;99.90;;;;;;5019037;28;20678;-62
2024/04/05 04:58:33;;;;;;;13.70;3.50;;;12.60;99.90;;;;;;5013945;28;20221;-63
2024/04/05 05:01:00;;;;;;;14.87;4.00;;;12.60;99.90;;;;;;5019225;28;20230;-63
2024/04/05 05:03:27;;;;;;;9.67;3.30;;;12.60;99.90;;;;;;5025166;28;20642;-63
2024/04/05 05:05:54;;;;;;;16.00;3.73;;;12.60;99.90;;;;;;5016725;28;20738;-62
2024/04/05 05:08:23;;;;;;;12.43;3.67;;;12.60;99.90;;;;;;5021750;28;20200;-63
2024/04/05 05:10:49;;;;;;;8.43;3.10;;;12.60;99.90;;;;;;5016187;28;20328;-63
2024/04/05 05:13:17;;;;;;;11.20;3.00;;;12.60;99.90;;;;;;5017488;28;22394;-63
2024/04/05 05:15:44;;;;;;;10.03;3.33;;;12.70;99.90;;;;;;5014216;28;20217;-62
2024/04/05 05:18:12;;;;;;;19.57;3.37;;;12.80;99.90;;;;;;5021346;28;20615;-62
2024/04/05 05:20:45;;;;;;;9.30;3.30;;;12.80;99.90;;;;;;5018794;28;20548;-62
2024/04/05 05:23:13;;;;;;;13.97;2.93;;;12.90;99.90;;;;;;5022547;28;20276;-63
2024/04/05 05:25:43;;;;;;;11.40;3.20;;;12.90;99.90;;;;;;5037295;28;20328;-63
2024/04/05 05:28:11;;;;;;;12.93;2.87;;;13.00;99.90;;;;;;5044341;28;20224;-63
2024/04/05 05:30:38;;;;;;;7.37;2.90;;;13.00;99.90;;;;;;5040606;28;20315;-63
2024/04/05 05:33:06;;;;;;;10.03;2.93;;;13.10;99.90;;;;;;5041098;28;20253;-63
2024/04/05 05:35:32;;;;;;;12.70;3.20;;;13.10;99.90;;;;;;5026560;28;20206;-63
2024/04/05 05:38:00;;;;;;;11.10;3.47;;;13.10;99.90;;;;;;5040373;28;20323;-62
2024/04/05 05:40:27;;;;;;;10.07;3.10;;;13.20;99.90;;;;;;5042441;28;20379;-62
2024/04/05 05:42:56;;;;;;;8.90;2.70;;;13.20;99.90;;;;;;5041902;28;20350;-62
2024/04/05 05:45:23;;;;;;;10.87;3.30;;;13.20;99.90;;;;;;5037156;28;20279;-62
2024/04/05 05:47:56;;;;;;;10.07;3.10;;;13.10;99.90;;;;;;5040634;28;20706;-62
2024/04/05 05:50:24;;;;;;;7.73;2.90;;;13.10;99.90;;;;;;5042935;28;20682;-61
2024/04/05 05:52:51;;;;;;;10.47;3.00;;;13.20;99.90;;;;;;5042008;28;20256;-62
2024/04/05 05:55:20;;;;;;;9.00;3.20;;;13.30;99.90;;;;;;5041289;28;20216;-62
2024/04/05 05:57:48;;;;;;;8.83;2.73;;;13.30;99.90;;;;;;5038121;28;20315;-62
2024/04/05 06:00:17;;;;;;;7.90;2.40;;;13.40;99.90;;;;;;5037809;28;20271;-62
2024/04/05 06:02:44;;;;;;;7.03;2.60;;;13.40;99.90;;;;;;5041219;28;20707;-62
2024/04/05 06:05:11;;;;;;;9.83;2.70;;;13.40;99.90;;;;;;5042361;28;20547;-62
2024/04/05 06:07:39;;;;;;;7.00;2.80;;;13.50;99.90;;;;;;5040028;28;20224;-62
2024/04/05 06:10:07;;;;;;;5.70;2.47;;;13.50;99.90;;;;;;5039248;28;20217;-62
2024/04/05 06:12:39;;;;;;;11.07;2.63;;;13.60;99.90;;;;;;5041039;28;20738;-62
2024/04/05 06:15:05;;;;;;;9.97;2.60;;;13.60;99.90;;;;;;5041724;28;20294;-62
2024/04/05 06:17:35;;;;;;;12.00;2.70;;;13.60;99.90;;;;;;5044310;28;20354;-62
2024/04/05 06:20:05;;;;;;;6.27;2.53;;;13.70;99.90;;;;;;5038854;28;20220;-62
2024/04/05 06:22:34;;;;;;;7.67;2.20;;;13.70;99.90;;;;;;5036715;28;20362;-62
2024/04/05 06:25:01;;;;;;;7.97;2.70;;;13.80;99.90;;;;;;5044137;28;20299;-62
2024/04/05 06:27:28;;;;;;;6.00;2.47;;;13.80;99.90;;;;;;5043385;28;20216;-62
2024/04/05 06:29:55;;;;;;;6.27;2.57;;;13.90;99.90;;;;;;5040601;28;20613;-62
2024/04/05 06:32:23;;;;;;;8.27;2.63;;;13.90;99.90;;;;;;5036554;28;20300;-62
2024/04/05 06:34:51;;;;;;;5.70;2.30;;;13.90;99.90;;;;;;5037003;28;20221;-61
2024/04/05 06:37:19;;;;;;;7.10;2.53;;;14.00;99.90;;;;;;5041897;28;20727;-62
2024/04/05 06:39:46;;;;;;;9.63;2.53;;;14.10;99.90;;;;;;5039190;28;20241;-62
2024/04/05 06:42:14;;;;;;;8.17;2.50;;;14.10;99.90;;;;;;5037752;28;20228;-62
2024/04/05 06:44:40;;;;;;;5.63;2.40;;;14.10;99.90;;;;;;5041041;28;20205;-62
2024/04/05 06:47:08;;;;;;;3.67;2.10;;;14.20;99.90;;;;;;5040992;28;20220;-63
2024/04/05 06:49:37;;;;;;;5.73;1.97;;;14.30;99.90;;;;;;5039350;28;20221;-62
2024/04/05 06:52:07;;;;;;;7.50;2.27;;;14.40;99.90;;;;;;5026742;28;20253;-62
2024/04/05 06:54:34;;;;;;;7.33;2.03;;;14.40;99.90;;;;;;5026814;28;20224;-62
2024/04/05 06:57:04;;;;;;;4.97;1.90;;;14.50;99.90;;;;;;5041114;28;20568;-62
2024/04/05 06:59:32;;;;;;;7.30;2.47;;;14.60;99.90;;;;;;5042798;28;20252;-63
2024/04/05 07:01:59;;;;;;;5.97;2.07;;;14.70;99.90;;;;;;5039514;28;20221;-63
2024/04/05 07:04:26;;;;;;;3.40;1.80;;;14.70;99.90;;;;;;5041280;28;20217;-62
2024/04/05 07:06:55;;;;;;;8.37;2.27;;;14.80;99.90;;;;;;5039479;28;20226;-62
2024/04/05 07:09:23;;;;;;;5.43;2.00;;;14.80;99.90;;;;;;5031472;28;20230;-62
2024/04/05 07:11:51;;;;;;;3.13;2.20;;;14.70;99.90;;;;;;5019746;28;20238;-63
2024/04/05 07:14:18;;;;;;;2.77;1.77;;;14.70;99.90;;;;;;5020300;28;20297;-62
2024/04/05 07:16:46;;;;;;;5.70;2.00;;;14.70;99.90;;;;;;5019773;28;20237;-62
2024/04/05 07:19:12;;;;;;;5.53;1.80;;;14.60;99.90;;;;;;5020266;28;20225;-62
2024/04/05 07:21:40;;;;;;;3.93;1.93;;;14.60;99.90;;;;;;5021043;28;20659;-62
2024/04/05 07:24:06;;;;;;;3.47;2.00;;;14.60;99.90;;;;;;5016895;28;20607;-62
2024/04/05 07:26:35;;;;;;;5.03;1.90;;;14.70;99.90;;;;;;5018147;28;20204;-62
2024/04/05 07:29:02;;;;;;;2.90;1.53;;;14.70;99.90;;;;;;5019718;28;20781;-62
2024/04/05 07:31:33;;;;;;;3.70;1.60;;;14.80;99.90;;;;;;5019288;28;20217;-62
2024/04/05 07:33:59;;;;;;;4.97;2.20;;;14.80;99.90;;;;;;5017992;28;20222;-62
2024/04/05 07:36:27;;;;;;;3.50;1.90;;;14.90;99.90;;;;;;5019318;28;20222;-62
2024/04/05 07:38:54;;;;;;;6.63;1.83;;;14.90;99.90;;;;;;5019242;28;20552;-62
2024/04/05 07:41:21;;;;;;;4.77;1.87;;;15.00;99.90;;;;;;5023804;28;20277;-62
2024/04/05 07:43:50;;;;;;;4.37;1.67;;;15.00;99.90;;;;;;5017947;28;20228;-62
2024/04/05 07:46:17;;;;;;;3.57;1.80;;;15.10;99.90;;;;;;5017807;28;20249;-62
2024/04/05 07:48:45;;;;;;;3.10;1.90;;;15.10;99.90;;;;;;5021610;28;20244;-62
2024/04/05 07:51:12;;;;;;;8.23;2.30;;;15.10;99.90;;;;;;5017878;28;20301;-62
2024/04/05 07:53:39;;;;;;;2.30;2.00;;;15.10;99.90;;;;;;5019868;28;20220;-62
2024/04/05 07:56:07;;;;;;;3.23;1.57;;;15.10;99.90;;;;;;5019882;28;20693;-62
2024/04/05 07:58:33;;;;;;;3.67;1.43;;;15.10;99.90;;;;;;5018862;28;20278;-63
2024/04/05 08:01:04;;;;;;;4.70;1.80;;;15.10;99.90;;;;;;5018750;28;20223;-63
2024/04/05 08:03:30;;;;;;;2.00;1.90;;;15.00;99.90;;;;;;5030291;28;20273;-62
2024/04/05 08:05:59;;;;;;;4.00;1.50;;;14.90;99.90;;;;;;5034942;28;20276;-62
2024/04/05 08:08:26;;;;;;;4.60;1.90;;;14.90;99.90;;;;;;5022794;28;20219;-62
2024/04/05 08:11:00;;;;;;;2.70;1.63;;;14.90;99.90;;;;;;5021570;28;20225;-63
2024/04/05 08:13:26;;;;;;;1.80;1.60;;;14.90;99.90;;;;;;5020357;28;20310;-62
2024/04/05 08:15:59;;;;;;;6.37;1.70;;;14.90;99.90;;;;;;5018934;28;20222;-63
2024/04/05 08:18:26;;;;;;;2.63;1.47;;;14.90;99.90;;;;;;5024791;28;20256;-62
2024/04/05 08:20:54;;;;;;;3.87;1.90;;;15.00;99.90;;;;;;5019757;28;20203;-63
2024/04/05 08:23:20;;;;;;;2.33;1.73;;;15.20;99.90;;;;;;5018562;28;20228;-62
2024/04/05 08:25:48;;;;;;;3.43;1.60;;;15.20;99.90;;;;;;5025204;28;20210;-63
2024/04/05 08:28:14;;;;;;;2.93;1.90;;;15.30;99.90;;;;;;5020661;28;20211;-62
2024/04/05 08:30:42;;;;;;;1.87;1.60;;;15.40;99.90;;;;;;5016960;28;20222;-63
2024/04/05 08:33:09;;;;;;;3.20;1.80;;;15.40;99.90;;;;;;5019382;28;20215;-62
2024/04/05 08:35:38;;;;;;;2.70;1.50;;;15.50;99.90;;;;;;5019832;28;20268;-60
2024/04/05 08:38:06;;;;;;;3.03;1.60;;;15.50;99.90;;;;;;5016922;28;20190;-63
2024/04/05 08:40:33;;;;;;;3.60;1.60;;;15.50;99.90;;;;;;5017465;28;20243;-63
2024/04/05 08:43:00;;;;;;;3.67;1.70;;;15.50;99.90;;;;;;5029738;28;20275;-62
2024/04/05 08:45:31;;;;;;;3.73;1.67;;;15.50;99.90;;;;;;5031926;28;20217;-62
2024/04/05 08:48:03;;;;;;;3.03;1.83;;;15.60;99.90;;;;;;5002285;28;20944;-63
2024/04/05 08:50:31;;;;;;;3.43;1.70;;;15.50;99.90;;;;;;5019344;28;20199;-63
2024/04/05 08:53:01;;;;;;;3.23;2.17;;;15.50;99.90;;;;;;5016897;28;20305;-62
2024/04/05 08:55:28;;;;;;;2.33;1.47;;;15.50;99.90;;;;;;5023813;28;20629;-62
2024/04/05 08:57:55;;;;;;;3.23;1.37;;;15.50;99.90;;;;;;5019616;28;20220;-63
2024/04/05 09:00:24;;;;;;;2.50;1.70;;;15.40;99.90;;;;;;5024201;28;20232;-62
2024/04/05 09:02:53;;;;;;;9.93;2.20;;;15.40;99.90;;;;;;5021609;28;20190;-62
2024/04/05 09:05:22;;;;;;;2.17;1.73;;;15.50;99.90;;;;;;5024045;28;20200;-62
2024/04/05 09:07:51;;;;;;;2.70;1.60;;;15.60;99.90;;;;;;5022022;28;20217;-63
2024/04/05 09:10:19;;;;;;;1.53;1.40;;;15.70;99.90;;;;;;5025288;28;20225;-63
2024/04/05 09:12:51;;;;;;;2.33;1.80;;;15.80;99.90;;;;;;5019919;28;20226;-62
2024/04/05 09:15:19;;;;;;;4.07;1.70;;;15.80;99.90;;;;;;5016974;28;20271;-62
2024/04/05 09:17:46;;;;;;;1.70;1.60;;;15.90;99.90;;;;;;5019412;28;21390;-62
2024/04/05 09:20:19;;;;;;;2.43;1.70;;;15.90;99.90;;;;;;5021148;28;20202;-63
2024/04/05 09:22:48;;;;;;;2.30;1.73;;;16.00;99.90;;;;;;5019995;28;20302;-62
2024/04/05 09:25:16;;;;;;;7.60;2.10;;;16.10;99.90;;;;;;5021716;28;20555;-62
2024/04/05 09:27:46;;;;;;;4.30;1.90;;;16.10;99.90;;;;;;5020852;28;20226;-63
2024/04/05 09:30:14;;;;;;;1.93;1.80;;;16.10;99.90;;;;;;5021197;28;20229;-62
2024/04/05 09:32:42;;;;;;;2.30;2.00;;;16.20;99.90;;;;;;5019820;28;20199;-62
2024/04/05 09:35:15;;;;;;;5.40;2.30;;;16.30;99.90;;;;;;5018865;28;20215;-63
2024/04/05 09:37:43;;;;;;;4.73;1.80;;;16.20;99.90;;;;;;5021039;28;20702;-63
2024/04/05 09:40:10;;;;;;;2.00;1.87;;;16.10;99.90;;;;;;5019765;28;20232;-62
2024/04/05 09:42:40;;;;;;;2.43;1.60;;;16.10;99.90;;;;;;5019977;28;20228;-62
2024/04/05 09:45:08;;;;;;;3.37;1.80;;;16.10;99.90;;;;;;5020511;28;20221;-62
2024/04/05 09:47:37;;;;;;;3.87;2.07;;;16.10;99.90;;;;;;5018480;28;20203;-63
2024/04/05 09:50:04;;;;;;;3.00;1.90;;;16.20;99.90;;;;;;5018314;28;20236;-63
2024/04/05 09:52:40;;;;;;;5.60;1.90;;;16.20;99.90;;;;;;5019528;28;20827;-63
2024/04/05 09:55:09;;;;;;;5.20;2.27;;;16.30;99.90;;;;;;5021721;28;20247;-62
2024/04/05 09:57:37;;;;;;;5.07;2.07;;;16.30;99.90;;;;;;5022630;28;20626;-63
2024/04/05 10:00:14;;;;;;;2.00;1.80;;;16.40;99.90;;;;;;5024139;28;20268;-62
2024/04/05 10:02:47;;;;;;;5.23;2.33;;;16.40;99.90;;;;;;5021979;28;20214;-62
2024/04/05 10:05:24;;;;;;;6.70;2.73;;;16.50;99.90;;;;;;5023816;28;20197;-62
2024/04/05 10:07:51;;;;;;;3.27;1.97;;;16.50;99.90;;;;;;5025423;28;20309;-63
2024/04/05 10:10:28;;;;;;;4.10;2.07;;;16.50;99.90;;;;;;5019405;28;20844;-63
2024/04/05 10:12:57;;;;;;;4.53;1.97;;;16.60;99.90;;;;;;5030281;28;20314;-63
2024/04/05 10:15:25;;;;;;;2.20;2.00;;;16.70;99.90;;;;;;5035066;28;20220;-63
2024/04/05 10:17:57;;;;;;;5.57;2.00;;;16.80;99.90;;;;;;5041584;28;20187;-63
2024/04/05 10:20:24;;;;;;;6.80;2.30;;;17.00;99.90;;;;;;5040804;28;20217;-61
2024/04/05 10:22:59;;;;;;;2.43;1.93;;;17.10;99.90;;;;;;5040314;28;20805;-61
2024/04/05 10:25:26;;;;;;;5.77;2.00;;;17.10;99.90;;;;;;5037534;28;20265;-64
2024/04/05 10:27:54;;;;;;;4.77;2.00;;;17.00;99.90;;;;;;5027386;28;20228;-62
2024/04/05 10:30:21;;;;;;;2.93;2.30;;;17.00;99.90;;;;;;5021869;28;20235;-62
2024/04/05 10:32:58;;;;;;;5.57;1.60;;;16.90;99.90;;;;;;5020019;28;20194;-62
2024/04/05 10:35:26;;;;;;;3.77;2.13;;;16.60;99.90;;;;;;5024131;28;20217;-62
2024/04/05 10:37:58;;;;;;;2.30;1.80;;;16.40;99.90;;;;;;5018950;28;20297;-62
2024/04/05 10:40:24;;;;;;;2.50;2.03;;;16.20;99.90;;;;;;5015922;28;20236;-61
2024/04/05 10:42:52;;;;;;;4.00;2.00;;;16.00;99.90;;;;;;5017325;28;20222;-61
2024/04/05 10:45:20;;;;;;;3.50;1.93;;;15.80;99.90;;;;;;5018323;28;20308;-61
2024/04/05 10:47:54;;;;;;;2.30;2.10;;;15.60;99.90;;;;;;5016318;28;20203;-62
2024/04/05 10:50:22;;;;;;;2.00;1.87;;;15.60;99.90;;;;;;5014993;28;20227;-62
2024/04/05 10:52:52;;;;;;;2.90;1.90;;;15.60;99.90;;;;;;5021207;28;20358;-61
2024/04/05 10:55:19;;;;;;;5.60;2.10;;;15.60;99.90;;;;;;4999587;28;20422;-62
2024/04/05 10:57:47;;;;;;;2.50;2.30;;;15.50;99.90;;;;;;5016693;28;20341;-62
2024/04/05 11:00:14;;;;;;;2.37;1.97;;;15.40;99.90;;;;;;5017375;28;20575;-62
2024/04/05 11:02:43;;;;;;;7.70;2.00;;;15.40;99.90;;;;;;5018686;28;20195;-61
2024/04/05 11:05:12;;;;;;;3.10;1.77;;;15.40;99.90;;;;;;5005787;28;20291;-62
2024/04/05 11:07:42;;;;;;;4.23;2.10;;;15.50;99.90;;;;;;5016418;28;20214;-62
2024/04/05 11:10:16;;;;;;;5.50;2.03;;;15.50;99.90;;;;;;5015048;28;20758;-62
2024/04/05 11:12:44;;;;;;;5.07;1.83;;;15.60;99.90;;;;;;5017540;28;20230;-62
2024/04/05 11:15:10;;;;;;;4.57;2.33;;;15.60;99.90;;;;;;5019310;28;20781;-62
2024/04/05 11:17:38;;;;;;;4.53;2.10;;;15.50;99.90;;;;;;5007122;28;20226;-62
2024/04/05 11:20:06;;;;;;;2.33;2.00;;;15.60;99.90;;;;;;5016742;28;20553;-62
2024/04/05 11:22:33;;;;;;;2.70;1.80;;;15.60;99.90;;;;;;5012629;28;20707;-62
2024/04/05 11:25:01;;;;;;;2.27;1.83;;;15.60;99.90;;;;;;5015500;28;20678;-62
2024/04/05 11:27:29;;;;;;;2.20;1.80;;;15.70;99.90;;;;;;5019952;28;20218;-62
2024/04/05 11:29:56;;;;;;;2.23;1.80;;;15.80;99.90;;;;;;5013781;28;20238;-61
2024/04/05 11:32:28;;;;;;;2.83;1.80;;;15.90;99.90;;;;;;5018845;28;20757;-62
2024/04/05 11:34:55;;;;;;;1.83;1.70;;;16.00;99.90;;;;;;5016160;28;20712;-62
2024/04/05 11:37:24;;;;;;;6.63;1.90;;;16.20;99.90;;;;;;5015983;28;20209;-62
2024/04/05 11:39:50;;;;;;;3.03;1.80;;;16.30;99.90;;;;;;5016363;28;20223;-63
2024/04/05 11:42:19;;;;;;;2.23;1.60;;;16.40;99.90;;;;;;5015423;28;20349;-62
2024/04/05 11:44:45;;;;;;;3.07;1.80;;;16.70;99.90;;;;;;5017898;28;20201;-62
2024/04/05 11:47:13;;;;;;;5.03;1.57;;;17.20;99.90;;;;;;5013157;28;20674;-63
2024/04/05 11:49:39;;;;;;;3.00;1.90;;;17.40;99.90;;;;;;5033703;28;20217;-62
2024/04/05 11:52:08;;;;;;;2.67;1.63;;;17.40;99.90;;;;;;5016878;28;20264;-62
2024/04/05 11:54:34;;;;;;;3.27;1.80;;;17.30;99.90;;;;;;5017110;28;20235;-62
2024/04/05 11:57:02;;;;;;;3.97;1.80;;;17.50;99.90;;;;;;5015562;28;20794;-63
2024/04/05 11:59:29;;;;;;;2.37;1.70;;;18.10;99.90;;;;;;5019301;28;20203;-62
2024/04/05 12:01:57;;;;;;;5.03;1.73;;;18.30;99.90;;;;;;5019356;28;20240;-62
2024/04/05 12:04:23;;;;;;;5.43;1.67;;;19.60;99.90;;;;;;5014576;28;20263;-63
2024/04/05 12:06:51;;;;;;;4.53;1.80;;;20.40;8.90;;;;;;5021394;28;20225;-63
2024/04/05 12:09:17;;;;;;;1.73;1.60;;;20.60;31.30;;;;;;5016489;28;20557;-63
2024/04/05 12:11:45;;;;;;;4.87;1.70;;;20.70;1.00;;;;;;5017531;28;20243;-63
2024/04/05 12:14:11;;;;;;;2.30;1.50;;;20.90;1.00;;;;;;5019438;28;20243;-63
2024/04/05 12:16:40;;;;;;;1.60;1.50;;;21.10;1.00;;;;;;5016246;28;20217;-63
2024/04/05 12:19:07;;;;;;;2.87;1.67;;;20.90;1.00;;;;;;5016725;28;20309;-63
2024/04/05 12:21:34;;;;;;;1.67;1.40;;;20.70;1.00;;;;;;5017175;28;20340;-63
2024/04/05 12:24:01;;;;;;;2.40;1.50;;;20.30;1.00;;;;;;5017262;28;20229;-63
2024/04/05 12:26:28;;;;;;;1.83;1.67;;;20.30;1.00;;;;;;5018290;28;20229;-63
2024/04/05 12:28:55;;;;;;;3.20;1.60;;;20.00;1.00;;;;;;5024192;28;20343;-63
2024/04/05 12:31:22;;;;;;;1.70;1.60;;;19.60;1.00;;;;;;5023364;28;20225;-63
2024/04/05 12:33:54;;;;;;;2.73;1.60;;;19.50;1.00;;;;;;5021461;28;20223;-64
2024/04/05 12:36:21;;;;;;;3.13;1.83;;;19.40;1.00;;;;;;5023355;28;20641;-63
2024/04/05 12:38:50;;;;;;;2.03;1.50;;;19.40;1.00;;;;;;5023575;28;20196;-63
2024/04/05 12:41:17;;;;;;;3.13;1.67;;;19.60;1.00;;;;;;5022105;28;20200;-63
2024/04/05 12:43:43;;;;;;;2.60;1.70;;;20.00;1.00;;;;;;5021272;28;20785;-63
2024/04/05 12:46:11;;;;;;;2.37;1.73;;;19.80;1.00;;;;;;5018992;28;20691;-63